Time;durP1;ratioP1;P1;durP2;ratioP2;P2;SDS_P1;SDS_P2;PMS_P1;PMS_P2;Temp;Humidity;BMP_temperature;BMP_pressure;BME280_temperature;BME280_humidity;BME280_pressure;Samples;Min_cycle;Max_cycle;Signal;HPM_P1;HPM_P2
2022/11/11 00:02:19;;;;;;;5.90;4.40;;;22.40;67.20;;;;;;5024226;28;20431;-78
2022/11/11 00:05:06;;;;;;;5.20;4.80;;;22.40;67.20;;;;;;5015656;28;20456;-78
2022/11/11 00:07:58;;;;;;;4.67;4.27;;;22.40;67.20;;;;;;5029255;28;20443;-78
2022/11/11 00:10:45;;;;;;;4.80;4.37;;;22.40;67.20;;;;;;5024598;28;20533;-78
2022/11/11 00:13:33;;;;;;;4.10;3.73;;;22.40;67.20;;;;;;5026015;28;20490;-77
2022/11/11 00:16:20;;;;;;;4.43;4.13;;;22.40;67.20;;;;;;5014320;28;20458;-78
2022/11/11 00:25:26;;;;;;;4.27;3.87;;;22.40;67.30;;;;;;5014186;28;20444;-78
2022/11/11 00:28:13;;;;;;;4.60;4.20;;;22.40;67.30;;;;;;5017933;28;20447;-78
2022/11/11 00:31:04;;;;;;;5.70;4.57;;;22.40;67.30;;;;;;5019044;28;20631;-77
2022/11/11 00:33:52;;;;;;;4.67;4.27;;;22.30;67.30;;;;;;5018376;28;20450;-78
2022/11/11 00:36:38;;;;;;;5.17;4.43;;;22.30;67.30;;;;;;5025820;28;20444;-78
2022/11/11 00:39:30;;;;;;;4.90;4.40;;;22.30;67.20;;;;;;5025336;28;20907;-77
2022/11/11 00:42:18;;;;;;;5.63;5.10;;;22.30;67.20;;;;;;5026716;28;20439;-78
2022/11/11 00:45:06;;;;;;;5.30;4.80;;;22.30;67.30;;;;;;5018302;28;20911;-77
2022/11/11 00:50:59;;;;;;;4.50;4.10;;;22.30;67.20;;;;;;5025146;28;20475;-77
2022/11/11 00:53:46;;;;;;;5.07;4.20;;;22.30;67.20;;;;;;5021586;28;20445;-77
2022/11/11 00:56:35;;;;;;;5.20;4.70;;;22.30;67.20;;;;;;5022084;28;20440;-77
2022/11/11 00:59:23;;;;;;;5.07;4.67;;;22.30;67.20;;;;;;5026255;28;20471;-77
2022/11/11 01:02:09;;;;;;;4.80;4.40;;;22.30;67.20;;;;;;5016535;28;20603;-78
2022/11/11 01:04:56;;;;;;;4.57;4.17;;;22.30;67.20;;;;;;5017113;28;20447;-77
2022/11/11 01:07:43;;;;;;;4.93;4.43;;;22.30;67.20;;;;;;5019329;28;20498;-78
2022/11/11 01:10:40;;;;;;;4.43;4.03;;;22.30;67.10;;;;;;5018727;28;20921;-78
2022/11/11 01:13:29;;;;;;;4.23;3.90;;;22.30;67.10;;;;;;5020885;28;20434;-78
2022/11/11 01:16:20;;;;;;;4.83;4.43;;;22.20;67.20;;;;;;5020061;28;20455;-78
2022/11/11 01:19:07;;;;;;;4.20;3.80;;;22.30;67.10;;;;;;5028619;28;20475;-78
2022/11/11 01:21:53;;;;;;;4.17;3.87;;;22.20;67.10;;;;;;5019020;28;20531;-77
2022/11/11 01:24:40;;;;;;;4.90;4.50;;;22.20;67.10;;;;;;5030450;28;20462;-78
2022/11/11 01:27:27;;;;;;;4.50;4.10;;;22.20;67.10;;;;;;5026850;28;20466;-78
2022/11/11 01:30:13;;;;;;;4.70;4.30;;;22.20;67.00;;;;;;5021714;28;20467;-77
2022/11/11 01:33:02;;;;;;;4.97;4.33;;;22.20;67.10;;;;;;5014181;28;20479;-77
2022/11/11 01:35:49;;;;;;;4.87;4.43;;;22.20;67.10;;;;;;5019915;28;20497;-78
2022/11/11 01:38:36;;;;;;;4.60;4.30;;;22.20;67.10;;;;;;5028483;28;21145;-78
2022/11/11 01:41:35;;;;;;;4.90;4.40;;;22.20;67.00;;;;;;5031117;28;20455;-77
2022/11/11 01:44:46;;;;;;;4.13;3.83;;;22.20;67.00;;;;;;5022437;28;20442;-77
2022/11/11 01:50:58;;;;;;;4.77;4.20;;;22.20;67.00;;;;;;5032400;28;20572;-78
2022/11/11 01:53:45;;;;;;;4.73;4.30;;;22.20;67.00;;;;;;5030415;28;20503;-77
2022/11/11 01:56:33;;;;;;;5.13;4.50;;;22.20;66.90;;;;;;5029289;28;20444;-78
2022/11/11 01:59:20;;;;;;;5.10;4.60;;;22.20;67.00;;;;;;5024889;28;20902;-77
2022/11/11 02:02:14;;;;;;;4.10;3.80;;;22.20;66.90;;;;;;5017723;28;20802;-77
2022/11/11 02:08:30;;;;;;;4.67;4.33;;;22.20;66.90;;;;;;5004700;28;20458;-77
2022/11/11 02:14:34;;;;;;;4.90;4.40;;;22.10;66.90;;;;;;5021144;28;20525;-78
2022/11/11 02:14:36;;;;;;;4.80;4.50;;;22.10;66.90;;;;;;5019070;28;20513;-78
2022/11/11 02:17:25;;;;;;;4.67;4.23;;;22.10;66.90;;;;;;5020879;28;20502;-77
2022/11/11 02:20:14;;;;;;;4.47;4.10;;;22.10;66.90;;;;;;5025877;28;20479;-77
2022/11/11 02:23:07;;;;;;;4.60;4.20;;;22.10;66.90;;;;;;5018755;28;20452;-77
2022/11/11 02:25:57;;;;;;;4.80;4.43;;;22.10;66.90;;;;;;5021185;28;20966;-77
2022/11/11 02:28:46;;;;;;;3.87;3.53;;;22.10;66.90;;;;;;5029979;28;20852;-77
2022/11/11 02:31:33;;;;;;;4.43;4.03;;;22.10;66.80;;;;;;5019458;28;20456;-77
2022/11/11 02:34:19;;;;;;;4.90;4.40;;;22.10;66.90;;;;;;5017155;28;20463;-77
2022/11/11 02:37:08;;;;;;;4.53;4.13;;;22.10;66.80;;;;;;5028135;28;20457;-77
2022/11/11 02:40:01;;;;;;;4.50;4.20;;;22.10;66.80;;;;;;5022550;28;20828;-78
2022/11/11 02:42:52;;;;;;;5.00;4.60;;;22.10;66.80;;;;;;5027642;28;20451;-77
2022/11/11 02:45:39;;;;;;;4.73;4.33;;;22.10;66.80;;;;;;5030334;28;20481;-77
2022/11/11 02:48:26;;;;;;;5.10;4.60;;;22.10;66.80;;;;;;5023876;28;21011;-77
2022/11/11 02:51:12;;;;;;;4.20;3.90;;;22.10;66.80;;;;;;5028641;28;20529;-78
2022/11/11 02:54:01;;;;;;;4.47;4.07;;;22.10;66.80;;;;;;5022048;28;20806;-77
2022/11/11 02:57:06;;;;;;;4.53;4.23;;;22.00;66.80;;;;;;5022969;28;20587;-77
2022/11/11 02:59:57;;;;;;;4.97;4.60;;;22.10;66.80;;;;;;5026331;28;20832;-78
2022/11/11 03:02:43;;;;;;;4.40;4.00;;;22.00;66.80;;;;;;5031909;28;20961;-77
2022/11/11 03:05:31;;;;;;;4.10;3.80;;;22.00;66.80;;;;;;5032407;28;20454;-78
2022/11/11 03:08:17;;;;;;;4.33;4.03;;;22.00;66.80;;;;;;5031549;28;20964;-77
2022/11/11 03:11:04;;;;;;;4.50;4.10;;;22.00;66.80;;;;;;5031975;28;20454;-77
2022/11/11 03:13:51;;;;;;;4.43;4.13;;;22.00;66.80;;;;;;5025496;28;20458;-77
2022/11/11 03:19:44;;;;;;;4.00;3.60;;;22.00;66.80;;;;;;5024935;28;20475;-77
2022/11/11 03:22:30;;;;;;;3.60;3.40;;;22.00;66.80;;;;;;5028889;28;20450;-78
2022/11/11 03:25:38;;;;;;;4.23;3.93;;;22.00;66.80;;;;;;5023899;28;20813;-78
2022/11/11 03:28:25;;;;;;;3.90;3.60;;;22.00;66.80;;;;;;5023935;28;20462;-78
2022/11/11 03:31:12;;;;;;;4.03;3.80;;;22.00;66.80;;;;;;5025100;28;20474;-78
2022/11/11 03:34:17;;;;;;;3.50;3.30;;;22.00;66.70;;;;;;5020887;28;20485;-78
2022/11/11 03:40:09;;;;;;;3.57;3.27;;;22.00;66.70;;;;;;5016675;28;20479;-78
2022/11/11 03:42:56;;;;;;;4.00;3.80;;;22.00;66.70;;;;;;5024435;28;20865;-78
2022/11/11 03:45:49;;;;;;;4.00;3.60;;;22.00;66.70;;;;;;5027015;28;21097;-78
2022/11/11 03:48:36;;;;;;;3.60;3.30;;;22.00;66.70;;;;;;5024052;28;20443;-78
2022/11/11 03:51:24;;;;;;;4.00;3.70;;;22.00;66.70;;;;;;5016383;28;20443;-78
2022/11/11 03:54:11;;;;;;;4.10;3.80;;;21.90;66.70;;;;;;5025899;28;20533;-78
2022/11/11 03:57:29;;;;;;;4.30;4.00;;;21.90;66.70;;;;;;5018339;28;20551;-77
2022/11/11 04:00:05;;;;;;;5.00;4.70;;;21.90;66.70;;;;;;5017363;28;20494;-78
2022/11/11 04:12:20;;;;;;;4.23;3.93;;;21.90;66.70;;;;;;5021548;28;20574;-78
2022/11/11 04:18:12;;;;;;;3.50;3.20;;;21.90;66.70;;;;;;5019297;28;20934;-77
2022/11/11 04:25:47;;;;;;;4.10;3.80;;;21.90;66.70;;;;;;5017118;28;20563;-77
2022/11/11 04:27:13;;;;;;;3.60;3.30;;;21.90;66.70;;;;;;5013711;28;20471;-77
2022/11/11 04:30:00;;;;;;;3.60;3.30;;;21.80;66.60;;;;;;5030110;28;20481;-77
2022/11/11 04:32:46;;;;;;;3.50;3.30;;;21.90;66.60;;;;;;5025858;28;20458;-78
2022/11/11 04:35:33;;;;;;;3.90;3.60;;;21.90;66.60;;;;;;5023802;28;20485;-77
2022/11/11 04:41:24;;;;;;;4.27;3.97;;;21.80;66.50;;;;;;5028532;28;20518;-77
2022/11/11 04:47:36;;;;;;;4.27;3.87;;;21.80;66.50;;;;;;5020462;28;20852;-78
2022/11/11 04:50:25;;;;;;;3.73;3.23;;;21.80;66.40;;;;;;5017222;28;20512;-77
2022/11/11 04:53:13;;;;;;;3.67;3.37;;;21.80;66.50;;;;;;5015347;28;20458;-77
2022/11/11 05:05:13;;;;;;;4.23;3.93;;;21.80;66.40;;;;;;5024990;28;20442;-78
2022/11/11 05:11:04;;;;;;;3.57;3.37;;;21.80;66.40;;;;;;5018538;28;20451;-78
2022/11/11 05:23:07;;;;;;;3.50;3.30;;;21.80;66.40;;;;;;5028560;28;20970;-77
2022/11/11 05:25:53;;;;;;;3.53;3.33;;;21.80;66.40;;;;;;5028298;28;20580;-77
2022/11/11 05:28:39;;;;;;;3.63;3.40;;;21.80;66.40;;;;;;5029530;28;20446;-77
2022/11/11 05:31:25;;;;;;;3.43;3.10;;;21.80;66.30;;;;;;5030496;28;20448;-77
2022/11/11 05:34:12;;;;;;;3.30;3.10;;;21.80;66.30;;;;;;5032786;28;20450;-77
2022/11/11 05:37:00;;;;;;;3.90;3.60;;;21.80;66.30;;;;;;5024687;28;20462;-77
2022/11/11 05:39:47;;;;;;;3.57;3.37;;;21.80;66.30;;;;;;5026324;28;20478;-78
2022/11/11 05:42:33;;;;;;;3.47;3.27;;;21.80;66.30;;;;;;5024705;28;20454;-78
2022/11/11 05:45:20;;;;;;;4.20;3.90;;;21.80;66.30;;;;;;5029042;28;21878;-78
2022/11/11 05:48:06;;;;;;;4.00;3.70;;;21.80;66.50;;;;;;5028069;28;20983;-78
2022/11/11 05:50:52;;;;;;;3.10;2.90;;;21.70;66.40;;;;;;5024738;28;20964;-77
2022/11/11 05:53:40;;;;;;;3.60;3.30;;;21.70;66.40;;;;;;5028821;28;21007;-77
2022/11/11 05:56:27;;;;;;;3.60;3.30;;;21.70;66.40;;;;;;5026558;28;20462;-77
2022/11/11 05:59:13;;;;;;;3.53;3.33;;;21.70;66.50;;;;;;5029855;28;20802;-77
2022/11/11 06:02:00;;;;;;;3.40;3.10;;;21.70;66.50;;;;;;5024619;28;21100;-78
2022/11/11 06:04:47;;;;;;;5.07;3.83;;;21.70;66.60;;;;;;5029788;28;20457;-77
2022/11/11 06:07:33;;;;;;;3.70;3.43;;;21.70;66.60;;;;;;5029526;28;20439;-76
2022/11/11 06:10:31;;;;;;;3.70;3.33;;;21.70;66.70;;;;;;5024265;28;20541;-80
2022/11/11 06:13:17;;;;;;;5.47;4.03;;;21.70;66.90;;;;;;5028475;28;20804;-81
2022/11/11 06:16:05;;;;;;;3.97;3.67;;;21.70;66.90;;;;;;5028923;28;20494;-81
2022/11/11 06:18:52;;;;;;;3.47;3.17;;;21.70;67.00;;;;;;5028695;28;20478;-78
2022/11/11 06:24:39;;;;;;;3.53;3.30;;;21.70;66.90;;;;;;5024649;28;20451;-81
2022/11/11 06:27:27;;;;;;;4.30;4.00;;;21.70;67.00;;;;;;5028849;28;20996;-81
2022/11/11 06:30:14;;;;;;;4.10;2.90;;;21.70;67.00;;;;;;5025076;28;20452;-81
2022/11/11 06:33:21;;;;;;;4.07;3.70;;;21.70;66.90;;;;;;5028225;28;20462;-82
2022/11/11 06:36:11;;;;;;;3.73;3.43;;;21.70;66.90;;;;;;5024271;28;20451;-81
2022/11/11 06:38:57;;;;;;;4.20;3.67;;;21.70;66.90;;;;;;5020946;28;20502;-81
2022/11/11 06:41:44;;;;;;;3.60;3.30;;;21.70;66.90;;;;;;5024866;28;20478;-81
2022/11/11 06:44:32;;;;;;;6.40;3.97;;;21.70;66.90;;;;;;5024880;28;20559;-81
2022/11/11 06:47:19;;;;;;;5.13;4.00;;;21.70;66.80;;;;;;5024701;28;20625;-81
2022/11/11 06:50:07;;;;;;;3.93;3.63;;;21.70;66.80;;;;;;5020814;28;20529;-80
2022/11/11 06:52:53;;;;;;;6.80;3.83;;;21.70;66.70;;;;;;5024713;28;20448;-81
2022/11/11 06:55:40;;;;;;;3.30;3.00;;;21.70;66.70;;;;;;5021687;28;20609;-81
2022/11/11 06:58:27;;;;;;;3.60;3.30;;;21.70;66.70;;;;;;5029306;28;20450;-81
2022/11/11 07:01:15;;;;;;;4.60;3.90;;;21.70;66.70;;;;;;5026944;28;21008;-80
2022/11/11 07:04:02;;;;;;;15.43;5.33;;;21.70;66.70;;;;;;5024196;28;20453;-80
2022/11/11 07:06:49;;;;;;;8.10;4.23;;;21.70;70.30;;;;;;5023822;28;20829;-80
2022/11/11 07:09:35;;;;;;;5.73;4.00;;;21.70;68.90;;;;;;5024327;28;20520;-79
2022/11/11 07:12:23;;;;;;;9.47;5.50;;;21.70;67.90;;;;;;5018778;28;20458;-80
2022/11/11 07:15:10;;;;;;;12.53;6.10;;;21.70;67.90;;;;;;5019470;28;20569;-80
2022/11/11 07:17:58;;;;;;;8.93;5.10;;;21.70;69.60;;;;;;5024187;28;20528;-81
2022/11/11 07:20:45;;;;;;;13.60;5.10;;;21.70;68.60;;;;;;5028496;28;20462;-79
2022/11/11 07:23:31;;;;;;;9.80;6.60;;;21.70;68.30;;;;;;5029180;28;20797;-81
2022/11/11 07:26:18;;;;;;;12.03;6.47;;;21.70;68.20;;;;;;5021684;28;20594;-80
2022/11/11 07:29:04;;;;;;;11.57;7.03;;;21.70;68.70;;;;;;5029677;28;20443;-80
2022/11/11 07:31:51;;;;;;;11.60;6.60;;;21.70;68.80;;;;;;5031733;28;20491;-80
2022/11/11 07:34:39;;;;;;;10.33;6.17;;;21.70;68.90;;;;;;5025622;28;20517;-81
2022/11/11 07:37:26;;;;;;;10.03;5.97;;;21.70;68.70;;;;;;5025094;28;20552;-81
2022/11/11 07:40:14;;;;;;;10.33;5.93;;;21.80;69.00;;;;;;5024212;28;20494;-82
2022/11/11 07:43:01;;;;;;;7.57;5.07;;;21.80;68.90;;;;;;5024285;28;20606;-82
2022/11/11 07:45:48;;;;;;;11.53;6.47;;;21.80;68.80;;;;;;5027776;28;20485;-83
2022/11/11 07:48:34;;;;;;;12.53;6.10;;;21.80;68.80;;;;;;5027010;28;20458;-82
2022/11/11 07:51:22;;;;;;;12.23;6.23;;;21.80;68.60;;;;;;5028411;28;20528;-81
2022/11/11 07:54:09;;;;;;;10.10;5.43;;;21.90;68.50;;;;;;5024942;28;20470;-81
2022/11/11 07:56:55;;;;;;;5.73;5.00;;;21.90;68.30;;;;;;5021602;28;20455;-82
2022/11/11 07:59:42;;;;;;;9.10;5.80;;;21.90;68.20;;;;;;5023215;28;20456;-82
2022/11/11 08:02:29;;;;;;;9.90;6.23;;;21.90;68.20;;;;;;5014993;28;20479;-81
2022/11/11 08:05:16;;;;;;;7.67;5.60;;;21.90;68.10;;;;;;5020862;28;20478;-81
2022/11/11 08:08:08;;;;;;;8.60;6.33;;;22.00;68.00;;;;;;5029574;28;20472;-81
2022/11/11 08:10:55;;;;;;;7.43;6.47;;;22.00;67.90;;;;;;5030544;28;20442;-81
2022/11/11 08:13:42;;;;;;;9.97;5.50;;;22.00;67.60;;;;;;5026277;28;20450;-81
2022/11/11 08:16:28;;;;;;;9.17;5.60;;;22.00;67.50;;;;;;5022942;28;20997;-82
2022/11/11 08:19:15;;;;;;;8.70;5.50;;;22.00;67.40;;;;;;5016533;28;20456;-82
2022/11/11 08:22:03;;;;;;;10.10;6.17;;;22.00;67.20;;;;;;5025521;28;21194;-81
2022/11/11 08:24:51;;;;;;;7.60;6.50;;;22.00;66.90;;;;;;5026976;28;20533;-81
2022/11/11 08:27:57;;;;;;;9.37;5.90;;;22.00;67.00;;;;;;5027207;28;20454;-81
2022/11/11 08:30:44;;;;;;;7.90;5.40;;;22.00;66.70;;;;;;5029142;28;20561;-82
2022/11/11 08:33:30;;;;;;;7.43;5.40;;;22.00;66.60;;;;;;5024456;28;20446;-82
2022/11/11 08:36:22;;;;;;;6.73;5.60;;;22.00;66.60;;;;;;5024611;28;20516;-82
2022/11/11 08:39:09;;;;;;;9.90;5.67;;;22.00;66.40;;;;;;5024280;28;20457;-82
2022/11/11 08:41:56;;;;;;;7.53;6.70;;;22.10;66.30;;;;;;5023326;28;20474;-81
2022/11/11 08:44:43;;;;;;;7.30;5.00;;;22.10;66.00;;;;;;5024611;28;20563;-81
2022/11/11 08:47:30;;;;;;;7.70;5.40;;;22.10;65.90;;;;;;5025063;28;20701;-81
2022/11/11 08:50:17;;;;;;;6.93;4.73;;;22.10;66.00;;;;;;5029945;28;20439;-81
2022/11/11 08:53:03;;;;;;;6.40;5.60;;;22.10;65.90;;;;;;5030339;28;20806;-82
2022/11/11 08:55:50;;;;;;;7.27;5.50;;;22.10;65.90;;;;;;5031127;28;20447;-82
2022/11/11 08:58:38;;;;;;;6.23;5.13;;;22.10;65.80;;;;;;5025062;28;20436;-81
2022/11/11 09:01:25;;;;;;;7.30;5.50;;;22.10;65.40;;;;;;5030390;28;20570;-81
2022/11/11 09:04:12;;;;;;;5.73;5.13;;;22.10;65.50;;;;;;5030955;28;20577;-82
2022/11/11 09:07:19;;;;;;;8.50;4.93;;;22.10;65.70;;;;;;5030771;28;20515;-82
2022/11/11 09:10:06;;;;;;;10.73;5.83;;;22.10;65.20;;;;;;5030585;28;20506;-81
2022/11/11 09:12:56;;;;;;;6.47;4.67;;;22.00;65.00;;;;;;5032788;28;20509;-82
2022/11/11 09:15:44;;;;;;;6.70;5.83;;;22.00;65.10;;;;;;5026390;28;20444;-81
2022/11/11 09:18:31;;;;;;;6.80;5.77;;;22.00;65.00;;;;;;5030270;28;20525;-81
2022/11/11 09:21:18;;;;;;;6.10;4.63;;;22.00;64.90;;;;;;5025547;28;20428;-81
2022/11/11 09:24:05;;;;;;;6.10;5.40;;;22.00;64.80;;;;;;5026640;28;20467;-80
2022/11/11 09:26:53;;;;;;;6.77;5.00;;;22.00;65.20;;;;;;5027091;28;22165;-82
2022/11/11 09:29:39;;;;;;;5.47;4.60;;;22.00;65.30;;;;;;5025378;28;20569;-82
2022/11/11 09:32:27;;;;;;;5.40;4.73;;;22.00;64.80;;;;;;5027840;28;20462;-81
2022/11/11 09:35:14;;;;;;;4.90;4.40;;;22.00;64.60;;;;;;5024499;28;20442;-81
2022/11/11 09:38:02;;;;;;;5.47;4.63;;;22.00;64.50;;;;;;5030591;28;20447;-82
2022/11/11 09:41:10;;;;;;;4.97;4.47;;;22.00;64.60;;;;;;5027622;28;20458;-81
2022/11/11 09:43:59;;;;;;;5.10;4.70;;;22.00;64.80;;;;;;5026761;28;20470;-82
2022/11/11 09:46:54;;;;;;;5.90;4.33;;;22.00;64.70;;;;;;5030572;28;20493;-81
2022/11/11 09:49:58;;;;;;;5.03;4.60;;;22.00;64.90;;;;;;5020712;28;20454;-80
2022/11/11 09:52:49;;;;;;;5.33;4.63;;;22.00;64.60;;;;;;5028737;28;20459;-81
2022/11/11 09:55:39;;;;;;;5.10;4.17;;;22.00;64.60;;;;;;5027064;28;20962;-81
2022/11/11 09:58:32;;;;;;;5.70;4.17;;;22.00;65.00;;;;;;5022183;28;20432;-81
2022/11/11 10:01:23;;;;;;;5.63;4.73;;;22.00;64.90;;;;;;5025132;28;20454;-78
2022/11/11 10:04:25;;;;;;;4.63;4.23;;;22.00;64.40;;;;;;5026192;28;20486;-78
2022/11/11 10:07:21;;;;;;;4.50;4.10;;;22.00;64.10;;;;;;5027871;28;20446;-83
2022/11/11 10:10:18;;;;;;;5.00;4.50;;;22.00;64.40;;;;;;5030087;28;20573;-80
2022/11/11 10:13:14;;;;;;;5.30;4.50;;;22.00;64.60;;;;;;5026989;28;20971;-80
2022/11/11 10:16:06;;;;;;;5.67;3.77;;;22.00;64.50;;;;;;5025935;28;20458;-80
2022/11/11 10:19:05;;;;;;;5.00;4.50;;;22.00;64.90;;;;;;5028465;28;20973;-80
2022/11/11 10:21:53;;;;;;;6.07;3.43;;;22.00;65.00;;;;;;5027745;28;20566;-81
2022/11/11 10:25:19;;;;;;;4.07;3.67;;;22.00;65.20;;;;;;5023025;28;20474;-81
2022/11/11 10:28:08;;;;;;;6.95;4.88;;;22.00;65.30;;;;;;5025247;28;20872;-80
2022/11/11 10:30:56;;;;;;;5.97;4.67;;;22.00;65.50;;;;;;5027940;28;20684;-81
2022/11/11 10:33:50;;;;;;;5.43;4.10;;;22.00;64.70;;;;;;5026025;28;20455;-81
2022/11/11 10:36:42;;;;;;;4.40;4.00;;;22.00;65.10;;;;;;5029104;28;20522;-80
2022/11/11 10:39:41;;;;;;;5.73;4.47;;;22.00;65.20;;;;;;5027703;28;20435;-80
2022/11/11 10:42:29;;;;;;;8.03;4.60;;;22.10;65.20;;;;;;5027869;28;20460;-81
2022/11/11 10:45:24;;;;;;;4.93;3.70;;;22.10;65.10;;;;;;5026043;28;20486;-81
2022/11/11 10:48:15;;;;;;;7.27;3.80;;;22.10;65.30;;;;;;5031074;28;20483;-80
2022/11/11 10:51:03;;;;;;;4.70;3.80;;;22.10;65.20;;;;;;5028634;28;20526;-80
2022/11/11 10:53:58;;;;;;;5.60;3.80;;;22.10;65.20;;;;;;5027415;28;20462;-80
2022/11/11 10:56:50;;;;;;;4.20;3.43;;;22.10;65.20;;;;;;5026770;28;20454;-82
2022/11/11 10:59:45;;;;;;;4.60;4.20;;;22.10;65.20;;;;;;5029387;28;20969;-80
2022/11/11 11:02:40;;;;;;;8.53;3.73;;;22.10;65.10;;;;;;5029029;28;21005;-81
2022/11/11 11:05:31;;;;;;;7.13;4.07;;;22.10;65.10;;;;;;5029017;28;20513;-81
2022/11/11 11:08:21;;;;;;;5.50;3.70;;;22.10;64.90;;;;;;5022314;28;20447;-81
2022/11/11 11:11:16;;;;;;;4.43;3.60;;;22.10;64.90;;;;;;5028367;28;20443;-81
2022/11/11 11:14:07;;;;;;;4.90;3.70;;;22.10;65.00;;;;;;5028267;28;20896;-79
2022/11/11 11:16:58;;;;;;;4.47;3.70;;;22.20;65.20;;;;;;5029517;28;20459;-80
2022/11/11 11:19:45;;;;;;;4.70;3.60;;;22.10;65.20;;;;;;5024611;28;20470;-79
2022/11/11 11:22:46;;;;;;;4.60;3.87;;;22.20;65.20;;;;;;5029692;28;20432;-81
2022/11/11 11:25:33;;;;;;;4.90;3.63;;;22.20;65.20;;;;;;5025674;28;20463;-80
2022/11/11 11:28:20;;;;;;;3.40;3.10;;;22.20;65.20;;;;;;5021601;28;21046;-79
2022/11/11 11:31:09;;;;;;;3.60;3.30;;;22.20;65.20;;;;;;5026866;28;20522;-80
2022/11/11 11:33:58;;;;;;;4.33;3.67;;;22.20;65.00;;;;;;5024939;28;20451;-80
2022/11/11 11:36:58;;;;;;;4.23;3.50;;;22.20;65.20;;;;;;5028171;28;20440;-81
2022/11/11 11:39:45;;;;;;;4.63;4.17;;;22.20;65.30;;;;;;5029803;28;20459;-79
2022/11/11 11:42:34;;;;;;;3.27;3.07;;;22.20;65.20;;;;;;5030885;28;20531;-80
2022/11/11 11:45:24;;;;;;;4.00;3.60;;;22.20;65.20;;;;;;5033126;28;20458;-80
2022/11/11 11:48:27;;;;;;;3.57;3.27;;;22.20;65.20;;;;;;5030083;28;20487;-81
2022/11/11 11:51:35;;;;;;;4.20;3.07;;;22.20;65.20;;;;;;5025586;28;20507;-80
2022/11/11 11:54:47;;;;;;;2.90;2.70;;;22.20;65.20;;;;;;5026378;28;20463;-81
2022/11/11 11:57:46;;;;;;;3.50;3.20;;;22.20;65.20;;;;;;5027565;28;20454;-80
2022/11/11 12:00:41;;;;;;;3.27;3.07;;;22.20;65.20;;;;;;5029094;28;20447;-81
2022/11/11 12:03:48;;;;;;;3.40;3.10;;;22.20;65.20;;;;;;5023152;28;20837;-81
2022/11/11 12:06:50;;;;;;;2.93;2.73;;;22.20;65.10;;;;;;5021104;28;20805;-80
2022/11/11 12:09:46;;;;;;;3.67;3.37;;;22.20;65.20;;;;;;5028647;28;20529;-80
2022/11/11 12:12:39;;;;;;;2.87;2.67;;;22.20;65.20;;;;;;5029549;28;20438;-80
2022/11/11 12:15:34;;;;;;;2.90;2.70;;;22.20;65.10;;;;;;5025709;28;20559;-80
2022/11/11 12:18:44;;;;;;;3.27;3.03;;;22.20;65.10;;;;;;5023050;28;20455;-80
2022/11/11 12:21:39;;;;;;;2.97;2.77;;;22.20;65.10;;;;;;5026861;28;20458;-80
2022/11/11 12:24:45;;;;;;;3.20;3.00;;;22.20;65.10;;;;;;5018393;28;20475;-80
2022/11/11 12:27:41;;;;;;;3.63;3.33;;;22.30;65.00;;;;;;5022124;28;20474;-81
2022/11/11 12:30:30;;;;;;;2.90;2.70;;;22.30;65.00;;;;;;5025845;28;20604;-80
2022/11/11 12:33:45;;;;;;;2.97;2.77;;;22.30;65.00;;;;;;5023543;28;20574;-79
2022/11/11 12:36:40;;;;;;;4.30;3.73;;;22.30;65.00;;;;;;5022621;28;20459;-80
2022/11/11 12:39:52;;;;;;;2.90;2.70;;;22.30;65.00;;;;;;5024920;28;20518;-79
2022/11/11 12:42:55;;;;;;;4.10;3.80;;;22.30;65.00;;;;;;5020009;28;20791;-80
2022/11/11 12:45:47;;;;;;;3.70;2.90;;;22.30;64.90;;;;;;5028667;28;20639;-80
2022/11/11 12:48:59;;;;;;;3.50;3.20;;;22.30;64.90;;;;;;5019509;28;20451;-80
2022/11/11 12:51:58;;;;;;;2.63;2.40;;;22.30;64.90;;;;;;5021415;28;20482;-80
2022/11/11 12:54:55;;;;;;;2.70;2.40;;;22.30;64.80;;;;;;5021519;28;20450;-79
2022/11/11 12:57:54;;;;;;;3.10;2.63;;;22.30;64.80;;;;;;5025974;28;20488;-80
2022/11/11 13:00:51;;;;;;;2.80;2.60;;;22.30;64.80;;;;;;5023018;28;20450;-81
2022/11/11 13:03:52;;;;;;;4.97;2.77;;;22.30;64.80;;;;;;5024002;28;20447;-81
2022/11/11 13:06:56;;;;;;;3.37;3.17;;;22.40;64.70;;;;;;5022763;28;20530;-79
2022/11/11 13:09:59;;;;;;;2.17;1.97;;;22.40;64.60;;;;;;5026832;28;20447;-80
2022/11/11 13:12:52;;;;;;;2.87;2.67;;;22.30;64.40;;;;;;5026227;28;20450;-79
2022/11/11 13:15:39;;;;;;;2.77;2.57;;;22.30;64.30;;;;;;5025837;28;20452;-80
2022/11/11 13:18:30;;;;;;;2.90;2.50;;;22.30;64.20;;;;;;5024672;28;20861;-79
2022/11/11 13:21:21;;;;;;;4.83;3.40;;;22.30;64.10;;;;;;5024454;28;20531;-78
2022/11/11 13:24:12;;;;;;;3.97;3.67;;;22.30;63.90;;;;;;5029509;28;20479;-79
2022/11/11 13:27:04;;;;;;;3.10;2.90;;;22.20;63.90;;;;;;5024431;28;20926;-79
2022/11/11 13:30:14;;;;;;;2.60;2.40;;;22.20;63.90;;;;;;5022797;28;20963;-79
2022/11/11 13:33:04;;;;;;;3.27;2.97;;;22.20;64.00;;;;;;5020327;28;20474;-78
2022/11/11 13:35:55;;;;;;;2.80;2.60;;;22.10;64.20;;;;;;5025417;28;20457;-79
2022/11/11 13:38:46;;;;;;;2.70;2.50;;;22.10;64.30;;;;;;5023525;28;20483;-80
2022/11/11 13:41:38;;;;;;;2.90;2.70;;;22.10;64.30;;;;;;5029699;28;22098;-80
2022/11/11 13:44:29;;;;;;;3.10;2.63;;;22.10;64.30;;;;;;5023536;28;20489;-78
2022/11/11 13:47:20;;;;;;;2.60;2.40;;;22.10;64.30;;;;;;5021678;28;20520;-79
2022/11/11 13:50:12;;;;;;;2.33;2.13;;;22.00;64.30;;;;;;5023904;28;22786;-82
2022/11/11 13:53:02;;;;;;;3.30;3.10;;;22.10;64.30;;;;;;5028546;28;20962;-81
2022/11/11 13:55:50;;;;;;;2.83;2.53;;;22.00;64.40;;;;;;5027694;28;20459;-78
2022/11/11 13:58:41;;;;;;;3.43;3.17;;;22.00;64.40;;;;;;5025271;28;20447;-79
2022/11/11 14:01:34;;;;;;;3.35;3.10;;;22.00;64.40;;;;;;5022104;28;20448;-81
2022/11/11 14:04:28;;;;;;;3.63;3.07;;;22.00;64.70;;;;;;5031285;28;20371;-82
2022/11/11 14:07:50;;;;;;;2.70;2.50;;;22.00;65.00;;;;;;5031375;28;20954;-83
2022/11/11 14:10:53;;;;;;;4.83;3.63;;;22.00;65.20;;;;;;5029485;28;20454;-82
2022/11/11 14:13:41;;;;;;;3.10;2.90;;;22.00;65.50;;;;;;5030689;28;20455;-83
2022/11/11 14:17:03;;;;;;;3.33;3.13;;;22.10;65.60;;;;;;5028661;28;20569;-79
2022/11/11 14:19:50;;;;;;;2.97;2.77;;;22.10;65.80;;;;;;5030605;28;20455;-80
2022/11/11 14:22:36;;;;;;;3.53;2.70;;;22.10;65.80;;;;;;5026749;28;20451;-81
2022/11/11 14:25:26;;;;;;;3.60;2.60;;;22.10;65.90;;;;;;5024792;28;20955;-82
2022/11/11 14:28:22;;;;;;;3.10;2.80;;;22.20;65.90;;;;;;5028861;28;20455;-82
2022/11/11 14:31:57;;;;;;;4.57;4.00;;;22.20;66.00;;;;;;5028672;28;20455;-81
2022/11/11 14:34:58;;;;;;;3.67;2.57;;;22.20;66.00;;;;;;5030581;28;20451;-84
2022/11/11 14:38:03;;;;;;;2.80;2.53;;;22.20;66.10;;;;;;5028281;28;20997;-82
2022/11/11 14:40:49;;;;;;;3.50;3.10;;;22.20;66.20;;;;;;5028427;28;20520;-80
2022/11/11 14:43:39;;;;;;;3.93;3.07;;;22.30;66.20;;;;;;5031138;28;20442;-82
2022/11/11 14:46:26;;;;;;;3.73;2.80;;;22.30;66.20;;;;;;5028939;28;20593;-78
2022/11/11 14:49:45;;;;;;;3.37;2.70;;;22.30;66.30;;;;;;5023361;28;20491;-81
2022/11/11 14:52:37;;;;;;;2.60;2.40;;;22.30;66.30;;;;;;5028001;28;20455;-80
2022/11/11 14:55:28;;;;;;;5.07;3.00;;;22.30;65.70;;;;;;5029018;28;20817;-81
2022/11/11 14:58:17;;;;;;;7.33;3.37;;;22.30;65.30;;;;;;5025244;28;20470;-81
2022/11/11 15:01:13;;;;;;;4.03;2.77;;;22.20;65.10;;;;;;5027208;28;20447;-81
2022/11/11 15:04:03;;;;;;;6.40;3.33;;;22.20;64.90;;;;;;5024899;28;20445;-81
2022/11/11 15:06:56;;;;;;;5.80;3.23;;;22.20;64.90;;;;;;5023682;28;20466;-81
2022/11/11 15:10:02;;;;;;;3.47;3.13;;;22.20;64.80;;;;;;5028336;28;20966;-80
2022/11/11 15:13:10;;;;;;;5.60;4.07;;;22.20;64.70;;;;;;5028474;28;20643;-81
2022/11/11 15:16:07;;;;;;;3.43;2.83;;;22.10;64.70;;;;;;5029531;28;20988;-80
2022/11/11 15:19:18;;;;;;;5.23;4.27;;;22.10;64.70;;;;;;5025641;28;20530;-80
2022/11/11 15:22:17;;;;;;;4.30;3.50;;;22.10;64.60;;;;;;5019366;28;20789;-79
2022/11/11 15:25:19;;;;;;;4.90;4.00;;;22.10;64.60;;;;;;5027889;28;20557;-79
2022/11/11 15:28:18;;;;;;;13.07;3.87;;;22.10;64.60;;;;;;5029067;28;20443;-80
2022/11/11 15:31:17;;;;;;;8.00;4.50;;;22.10;64.50;;;;;;5027757;28;20447;-80
2022/11/11 15:34:18;;;;;;;9.00;4.70;;;22.00;64.20;;;;;;5027989;28;20458;-80
2022/11/11 15:37:09;;;;;;;5.07;4.00;;;22.00;64.20;;;;;;5028548;28;20471;-79
2022/11/11 15:39:57;;;;;;;8.33;4.27;;;22.00;64.10;;;;;;5023805;28;20493;-79
2022/11/11 15:42:48;;;;;;;7.07;3.90;;;22.00;64.00;;;;;;5025649;28;20459;-80
2022/11/11 15:45:36;;;;;;;5.60;4.07;;;22.00;64.20;;;;;;5025843;28;20954;-79
2022/11/11 15:48:27;;;;;;;8.00;5.10;;;22.00;64.20;;;;;;5029807;28;20800;-79
2022/11/11 15:51:26;;;;;;;6.17;4.10;;;22.00;64.10;;;;;;5030742;28;20458;-79
2022/11/11 15:54:21;;;;;;;4.40;3.30;;;21.90;64.20;;;;;;5022777;28;21044;-80
2022/11/11 15:57:21;;;;;;;5.23;4.13;;;21.90;64.30;;;;;;5025244;28;20452;-79
2022/11/11 16:00:30;;;;;;;4.10;3.37;;;21.90;64.30;;;;;;5026990;28;20566;-80
2022/11/11 16:03:19;;;;;;;4.07;3.77;;;21.90;64.30;;;;;;5027646;28;20454;-79